Phnom Penh, Cambodia
Current Conditions -  °F | °C
As of 2:00 PM on Thursday 18 Dec 2014 (Local Time) from VDPP Reporting Station
Scattered Clouds Scattered Clouds  
Wind Chill: 26°   Ceiling: Unl
Heat Index: 27°   Visibility: 6mi
Dew Point: 17°   Wind: 12mph
Humidity: 57%   Direction: 20°NNE
Pressure: 29.88"   Gusts: NA
Location:  11.56°N, 104.92°E
Report Text: VDPP 180700Z 02010KT 9999 FEW017 SCT040 26/17 Q1012
Loading
Personal Weather Stations






























Interactive Weather Map New forecast layout! Learn more

10-Day Weather Forecast

Advertisements
Track Severe Weather on mobile